Data for 07/06/2017

Time Sea-Level Adjusted Pressure Absolute Pressure Temperature Relative Humidity Dew Point   
(mb) (inHg) (mb) (inHg) (C) (F) (%) (C) (F)
00:05 1026 30.3 855 25.25 20 68 44 7.5 45.6
00:10 1026 30.3 855 25.25 19.9 67.8 44 7.6 45.6
00:15 1026 30.3 855 25.25 19.9 67.8 44 7.4 45.3
00:20 1026 30.3 855 25.25 20.1 68.2 43 7.3 45.2
00:25 1026 30.3 855 25.25 19.9 67.7 47 8.3 46.9
00:30 1026 30.3 855 25.25 19 66.3 48 7.9 46.2
00:35 1026 30.3 856 25.28 19.1 66.4 45 7.1 44.9
00:40 1026 30.3 856 25.28 19.3 66.7 45 7.3 45.1
00:45 1026 30.3 855 25.25 18.9 66.1 48 7.7 45.8
00:50 1026 30.3 855 25.25 18.5 65.3 49 7.7 45.9
00:55 1026 30.3 855 25.25 18.3 64.9 50 7.8 46
01:00 1026 30.3 855 25.25 18.2 64.7 50 7.7 45.9
01:05 1026 30.3 855 25.25 18 64.3 50 7.5 45.5
01:10 1026 30.3 855 25.25 18.2 64.7 49 7.4 45.3
01:15 1026 30.3 855 25.25 18.2 64.8 50 7.8 46.1
01:20 1026 30.3 855 25.25 18.1 64.6 47 6.8 44.3
01:25 1026 30.3 855 25.25 18.6 65.5 47 7.1 44.7
01:30 1026 30.3 856 25.28 18.8 65.9 47 7.4 45.2
01:35 1027 30.33 856 25.28 18.8 65.9 47 7.3 45.2
01:40 1027 30.33 856 25.28 18.7 65.7 46 7.2 44.9
01:45 1027 30.33 856 25.28 18.7 65.7 47 7.2 45
01:50 1027 30.33 856 25.28 18.4 65.1 47 7 44.5
01:55 1027 30.33 856 25.28 18.4 65.1 47 7 44.6
02:00 1027 30.33 856 25.28 18.4 65.1 48 7.2 45
02:05 1027 30.33 856 25.28 18.5 65.4 45 6.7 44
02:10 1027 30.33 856 25.28 18.5 65.3 49 7.8 46
02:15 1027 30.33 856 25.28 17.8 64 52 8.1 46.5
02:20 1027 30.33 856 25.28 17.1 62.7 53 7.5 45.5
02:25 1027 30.33 856 25.28 17.2 62.9 54 7.9 46.2
02:30 1027 30.33 856 25.28 16.9 62.4 54 7.7 45.9
02:35 1026 30.3 856 25.28 17 62.6 53 7.3 45.2
02:40 1026 30.3 856 25.28 17.2 62.9 53 7.6 45.6
02:45 1026 30.3 856 25.28 17.3 63.2 53 7.7 45.8
02:50 1026 30.3 855 25.25 17.2 62.9 54 8 46.3
02:55 1026 30.3 855 25.25 17.1 62.7 54 7.7 45.8
03:00 1026 30.3 855 25.25 17 62.7 54 7.9 46.2
03:05 1026 30.3 855 25.25 17.1 62.7 52 7.3 45.1
03:10 1026 30.3 855 25.25 17.2 63 52 7.5 45.4
03:15 1026 30.3 855 25.25 16.9 62.4 54 7.6 45.6
03:20 1026 30.3 855 25.25 16.6 61.9 54 7.3 45.2
03:25 1026 30.3 855 25.25 16.4 61.4 56 7.7 45.8
03:30 1026 30.3 855 25.25 16 60.8 57 7.6 45.6
03:35 1026 30.3 855 25.25 15.7 60.3 58 7.6 45.6
03:40 1026 30.3 855 25.25 15.9 60.7 57 7.5 45.6
03:45 1026 30.3 855 25.25 16.2 61.1 57 7.6 45.8
03:50 1026 30.3 855 25.25 16.3 61.4 56 7.6 45.8
03:55 1026 30.3 855 25.25 16.3 61.3 56 7.6 45.7
04:00 1026 30.3 855 25.25 16.4 61.6 56 7.7 45.8
04:05 1025 30.27 855 25.25 16.5 61.8 52 6.7 44
04:10 1025 30.27 854 25.22 17.1 62.7 52 7.1 44.9
04:15 1025 30.27 855 25.25 16.9 62.5 53 7.3 45.1
04:20 1026 30.3 855 25.25 16.6 61.8 52 6.9 44.4
04:25 1025 30.27 855 25.25 16.9 62.4 50 6.4 43.5
04:30 1025 30.27 855 25.25 17.3 63.1 49 6.5 43.7
04:35 1025 30.27 855 25.25 17 62.6 50 6.6 44
04:40 1026 30.3 855 25.25 16.6 61.8 52 6.7 44
04:45 1026 30.3 855 25.25 16.8 62.2 51 6.7 44.1
04:50 1026 30.3 855 25.25 16.9 62.4 50 6.4 43.6
04:55 1026 30.3 855 25.25 17.2 63 51 7.1 44.8
05:00 1026 30.3 855 25.25 16.9 62.5 52 7 44.6
05:05 1026 30.3 855 25.25 17.2 62.9 50 6.7 44.1
05:10 1026 30.3 855 25.25 17.2 63 50 6.9 44.4
05:15 1026 30.3 855 25.25 17.1 62.7 51 6.9 44.5
05:20 1026 30.3 855 25.25 17.1 62.8 51 6.9 44.4
05:25 1026 30.3 855 25.25 17.1 62.9 51 7 44.6
05:30 1026 30.3 855 25.25 17.1 62.9 50 6.8 44.3
05:35 1026 30.3 855 25.25 17.8 64 47 6.4 43.6
05:40 1026 30.3 855 25.25 17.9 64.2 48 6.8 44.2
05:45 1026 30.3 855 25.25 17.7 63.9 49 7 44.6
05:50 1026 30.3 855 25.25 17.3 63.1 52 7.4 45.4
05:55 1026 30.3 855 25.25 16.7 62.1 51 6.7 44
06:00 1026 30.3 855 25.25 16.9 62.4 50 6.6 43.9
06:05 1026 30.3 855 25.25 17.2 63 50 6.8 44.2
06:10 1026 30.3 855 25.25 17.4 63.3 49 6.7 44
06:15 1026 30.3 855 25.25 17.4 63.4 49 6.7 44.1
06:20 1026 30.3 855 25.25 17.5 63.5 49 6.8 44.3
06:25 1026 30.3 855 25.25 17.5 63.4 50 6.9 44.4
06:30 1027 30.33 856 25.28 17.6 63.6 50 7 44.6
06:35 1027 30.33 856 25.28 17.8 64.1 49 7.2 45
06:40 1027 30.33 856 25.28 17.4 63.4 51 7.4 45.4
06:45 1027 30.33 856 25.28 17.3 63.2 51 7.3 45.1
06:50 1027 30.33 856 25.28 17.2 63 53 7.6 45.6
06:55 1027 30.33 856 25.28 17 62.6 53 7.5 45.4
07:00 1027 30.33 856 25.28 17 62.5 54 7.7 45.9
07:05 1026 30.3 856 25.28 16.9 62.5 53 7.4 45.4
07:10 1026 30.3 856 25.28 17.2 63 53 7.8 46
07:15 1026 30.3 855 25.25 17.5 63.5 54 8.2 46.7
07:20 1026 30.3 855 25.25 17.6 63.7 51 7.5 45.5
07:25 1026 30.3 855 25.25 17.7 63.8 53 8.1 46.6
07:30 1026 30.3 855 25.25 17.9 64.2 52 8 46.5
07:35 1026 30.3 855 25.25 18 64.3 50 7.6 45.6
07:40 1026 30.3 855 25.25 18.1 64.5 50 7.7 45.9
07:45 1026 30.3 855 25.25 18.2 64.7 54 8.9 48
07:50 1026 30.3 855 25.25 18.2 64.8 50 7.9 46.2
07:55 1026 30.3 855 25.25 18.4 65.1 50 7.9 46.3
08:00 1026 30.3 855 25.25 19 66.2 48 7.9 46.3
08:05 1026 30.3 855 25.25 19.6 67.3 49 8.7 47.7
08:10 1026 30.3 856 25.28 19.7 67.4 51 9.4 49
08:15 1027 30.33 856 25.28 19.2 66.5 54 9.7 49.5
08:20 1027 30.33 856 25.28 19.1 66.4 51 9 48.2
08:25 1027 30.33 856 25.28 19.4 67 49 8.7 47.6
08:30 1027 30.33 856 25.28 19.2 66.6 52 9.4 48.9
08:35 1027 30.33 856 25.28 18.9 66 53 9.3 48.7
08:40 1027 30.33 856 25.28 18.8 65.8 52 8.9 48
08:45 1027 30.33 856 25.28 19.6 67.3 52 9.5 49.2
08:50 1027 30.33 856 25.28 20.7 69.3 46 8.9 48
08:55 1027 30.33 856 25.28 21.5 70.6 44 8.7 47.7
09:00 1027 30.33 856 25.28 21.9 71.3 42 8.5 47.4
09:05 1027 30.33 856 25.28 22.2 72 42 8.7 47.6
09:10 1027 30.33 856 25.28 22.4 72.2 42 8.9 48
09:15 1027 30.33 856 25.28 22.9 73.2 38 8.1 46.6
09:20 1027 30.33 856 25.28 22.4 72.3 40 8.4 47.2
09:25 1027 30.33 856 25.28 22.1 71.8 40 8.2 46.7
09:30 1027 30.33 856 25.28 22.4 72.3 39 8.1 46.5
09:35 1027 30.33 856 25.28 22.1 71.9 40 8 46.4
09:40 1027 30.33 856 25.28 22.6 72.7 37 7.5 45.5
09:45 1027 30.33 856 25.28 22.7 72.9 39 8.2 46.8
09:50 1027 30.33 856 25.28 23.2 73.7 37 7.8 46
09:55 1027 30.33 856 25.28 23 73.3 38 8 46.4
10:00 1027 30.33 856 25.28 23.9 75 34 7.2 45
10:05 1027 30.33 856 25.28 24.5 76.1 35 8.1 46.6
10:10 1027 30.33 856 25.28 23.8 74.8 35 7.8 46
10:15 1027 30.33 856 25.28 24.5 76.1 34 7.8 46.1
10:20 1027 30.33 856 25.28 25 77.1 32 7.6 45.6
10:25 1027 30.33 856 25.28 25.4 77.7 30 7 44.6
10:30 1027 30.33 856 25.28 25.9 78.6 30 7.4 45.4
10:35 1027 30.33 856 25.28 25.5 77.8 32 7.6 45.8
10:40 1027 30.33 856 25.28 25 77 33 7.9 46.2
10:45 1027 30.33 856 25.28 25.4 77.6 31 7.4 45.3
10:50 1027 30.33 856 25.28 26.5 79.7 29 7.5 45.5
10:55 1027 30.33 856 25.28 26.5 79.7 28 6.8 44.2
11:00 1027 30.33 856 25.28 26.6 79.8 29 7.6 45.6
11:05 1027 30.33 856 25.28 27 80.5 28 7.3 45.1
11:10 1027 30.33 856 25.28 27.7 81.8 27 7.3 45.2
11:15 1027 30.33 856 25.28 27.7 81.9 27 7.3 45.1
11:20 1027 30.33 856 25.28 27.9 82.2 27 7.3 45.1
11:25 1027 30.33 856 25.28 28.2 82.8 27 7.6 45.8
11:30 1027 30.33 856 25.28 28.2 82.7 27 7.8 46
11:35 1027 30.33 856 25.28 28 82.5 29 8.6 47.5
11:40 1027 30.33 856 25.28 27.9 82.2 28 8.2 46.8
11:45 1027 30.33 856 25.28 28.6 83.5 27 8.2 46.8
11:50 1027 30.33 856 25.28 28.3 83 27 7.8 46.1
11:55 1027 30.33 856 25.28 28.3 82.9 28 8.5 47.3
12:00 1027 30.33 856 25.28 28.4 83.1 27 7.9 46.2
12:05 1027 30.33 856 25.28 29.3 84.7 26 8.1 46.6
12:10 1027 30.33 856 25.28 29.3 84.8 24 7.1 44.8
12:15 1027 30.33 856 25.28 29.5 85 24 6.9 44.4
12:20 1027 30.33 856 25.28 29.9 85.8 23 6.7 44
12:25 1026 30.3 856 25.28 29.4 84.9 23 6.8 44.2
12:30 1026 30.3 856 25.28 30.2 86.4 22 6.7 44
12:35 1026 30.3 856 25.28 30.2 86.4 22 6.6 44
12:40 1026 30.3 856 25.28 29.7 85.4 22 6.3 43.4
12:45 1026 30.3 856 25.28 30 86 23 6.9 44.4
12:50 1026 30.3 856 25.28 30.4 86.7 23 7.4 45.3
12:55 1026 30.3 855 25.25 29.4 85 24 7.4 45.2
13:00 1026 30.3 855 25.25 29.6 85.3 23 6.7 44.1
13:05 1026 30.3 855 25.25 29.8 85.6 23 7 44.5
13:10 1026 30.3 855 25.25 29.6 85.3 24 7.2 44.9
13:15 1026 30.3 855 25.25 29.9 85.8 25 7.8 46.1
13:20 1026 30.3 855 25.25 30.5 86.9 21 6.4 43.5
13:25 1026 30.3 855 25.25 31.4 88.6 21 6.6 43.9
13:30 1026 30.3 855 25.25 30.9 87.7 22 7.3 45.2
13:35 1026 30.3 855 25.25 30.7 87.2 21 6.3 43.3
13:40 1026 30.3 855 25.25 31.3 88.4 21 6.5 43.7
13:45 1026 30.3 855 25.25 31.8 89.3 20 6.3 43.3
13:50 1026 30.3 855 25.25 32.7 90.8 18 5.5 41.9
13:55 1026 30.3 855 25.25 32 89.7 19 6 42.8
14:00 1025 30.27 855 25.25 31.2 88.1 19 4.9 40.8
14:05 1025 30.27 855 25.25 31.5 88.8 19 5.5 41.9
14:10 1025 30.27 855 25.25 32 89.6 19 5.8 42.5
14:15 1025 30.27 855 25.25 32.2 89.9 18 5 40.9
14:20 1025 30.27 855 25.25 32.6 90.7 17 4.6 40.4
14:25 1025 30.27 855 25.25 32.7 90.8 15 3.1 37.6
14:30 1025 30.27 855 25.25 32.6 90.6 16 3.6 38.5
14:35 1025 30.27 855 25.25 32.4 90.2 17 4.6 40.3
14:40 1025 30.27 855 25.25 32.2 90 16 3.3 37.9
14:45 1025 30.27 855 25.25 32.6 90.7 17 4.5 40
14:50 1025 30.27 855 25.25 32.4 90.3 15 3.3 37.9
14:55 1025 30.27 855 25.25 32.7 90.9 15 3 37.4
15:00 1025 30.27 854 25.22 33.1 91.7 15 3.2 37.8
15:05 1025 30.27 854 25.22 33.3 92 15 3.9 39.1
15:10 1025 30.27 854 25.22 33.5 92.2 15 3.7 38.7
15:15 1025 30.27 854 25.22 32.9 91.2 17 5.4 41.7
15:20 1025 30.27 854 25.22 32.9 91.3 16 4.3 39.7
15:25 1025 30.27 854 25.22 32.8 91 16 4.1 39.4
15:30 1025 30.27 854 25.22 32.6 90.6 15 2.9 37.3
15:35 1025 30.27 854 25.22 33 91.5 15 3.5 38.3
15:40 1025 30.27 854 25.22 33 91.3 15 3.3 37.9
15:45 1025 30.27 854 25.22 33 91.5 15 3.5 38.3
15:50 1025 30.27 854 25.22 32.7 90.8 15 3.1 37.5
15:55 1025 30.27 854 25.22 32.6 90.7 15 3.3 37.9
16:00 1025 30.27 854 25.22 32.8 91.1 15 3.1 37.7
16:05 1025 30.27 854 25.22 32.1 89.8 15 3.1 37.5
16:10 1025 30.27 854 25.22 32.5 90.5 13 1.1 33.9
16:15 1025 30.27 854 25.22 32.5 90.4 15 2.5 36.4
16:20 1025 30.27 854 25.22 32.7 90.8 14 2.4 36.3
16:25 1025 30.27 854 25.22 33 91.5 14 2.5 36.4
16:30 1025 30.27 854 25.22 31.7 89.1 15 2 35.5
16:35 1025 30.27 854 25.22 31.1 87.9 17 3.8 38.9
16:40 1025 30.27 855 25.25 31.1 87.9 15 2.2 35.9
16:45 1025 30.27 855 25.25 31.2 88.2 17 3.8 38.8
16:50 1026 30.3 855 25.25 31.1 88 20 5.7 42.3
16:55 1026 30.3 855 25.25 29.2 84.5 23 6.1 43
17:00 1025 30.27 855 25.25 28.6 83.5 20 4 39.1
17:05 1025 30.27 855 25.25 28.9 84.1 20 3.7 38.6
17:10 1025 30.27 855 25.25 29 84.1 21 4.8 40.7
17:15 1025 30.27 855 25.25 29 84.2 20 4.3 39.7
17:20 1025 30.27 855 25.25 28.6 83.6 22 4.9 40.9
17:25 1025 30.27 855 25.25 28.5 83.3 19 3.2 37.7
17:30 1025 30.27 855 25.25 28.9 84 18 2.4 36.2
17:35 1025 30.27 854 25.22 29.5 85.2 18 2.8 37.1
17:40 1025 30.27 854 25.22 30.4 86.8 16 1.8 35.3
17:45 1025 30.27 854 25.22 30.5 86.9 14 0.6 33.1
17:50 1025 30.27 854 25.22 30.3 86.6 15 0.8 33.4
17:55 1025 30.27 854 25.22 30.6 87.1 14 0.5 32.9
18:00 1025 30.27 854 25.22 31 87.7 13 -0.1 31.8
18:05 1025 30.27 854 25.22 30.8 87.4 13 -0.1 31.8
18:10 1025 30.27 854 25.22 30.8 87.4 13 -0.7 30.7
18:15 1025 30.27 854 25.22 30.8 87.4 12 -1.9 28.6
18:20 1025 30.27 854 25.22 30.9 87.6 13 -0.8 30.5
18:25 1025 30.27 854 25.22 31 87.9 12 -1.5 29.3
18:30 1025 30.27 854 25.22 31.6 88.8 13 0.6 33
18:35 1025 30.27 854 25.22 31 87.8 14 0.7 33.3
18:40 1025 30.27 854 25.22 30.8 87.4 14 0.7 33.2
18:45 1025 30.27 854 25.22 31 87.8 14 1 33.8
18:50 1025 30.27 854 25.22 30.8 87.5 15 1.7 35.1
18:55 1025 30.27 854 25.22 30.5 86.8 15 1.6 34.9
19:00 1025 30.27 854 25.22 30.5 86.9 15 1.7 35.1
19:05 1025 30.27 854 25.22 30.7 87.3 14 1 33.9
19:10 1025 30.27 854 25.22 30.7 87.2 13 -0 32
19:15 1025 30.27 854 25.22 30.7 87.3 14 0.1 32.3
19:20 1025 30.27 854 25.22 30.7 87.2 14 0.6 33.2
19:25 1025 30.27 854 25.22 29.7 85.5 21 5.7 42.3
19:30 1025 30.27 854 25.22 27.9 82.3 25 6.2 43.2
19:35 1025 30.27 854 25.22 27.3 81.1 25 5.8 42.5
19:40 1025 30.27 854 25.22 26.9 80.5 26 6.1 43
19:45 1025 30.27 854 25.22 26.7 80.1 27 6.2 43.2
19:50 1025 30.27 854 25.22 26.5 79.6 27 6.3 43.4
19:55 1025 30.27 854 25.22 26.3 79.3 28 6.6 43.9
20:00 1025 30.27 855 25.25 26.1 78.9 28 6.2 43.2
20:05 1025 30.27 855 25.25 25.9 78.7 28 6.2 43.1
20:10 1026 30.3 855 25.25 25.8 78.4 27 5.8 42.4
20:15 1026 30.3 855 25.25 25.6 78 26 4.9 40.8
20:20 1026 30.3 855 25.25 25.5 77.8 27 5.2 41.4
20:25 1026 30.3 855 25.25 25.2 77.4 27 5.2 41.4
20:30 1025 30.27 855 25.25 25.1 77.2 28 5.4 41.7
20:35 1026 30.3 855 25.25 24.9 76.9 28 5.5 41.8
20:40 1026 30.3 855 25.25 24.7 76.5 29 5.6 42
20:45 1026 30.3 855 25.25 24.5 76.2 29 5.6 42.1
20:50 1026 30.3 855 25.25 24.4 75.9 29 5.5 42
20:55 1026 30.3 855 25.25 24.2 75.6 29 5.4 41.8
21:00 1026 30.3 855 25.25 24.1 75.4 30 5.5 42
21:05 1026 30.3 855 25.25 24 75.2 30 5.6 42.1
21:10 1026 30.3 855 25.25 23.9 75 30 5.6 42.1
21:15 1026 30.3 855 25.25 23.8 74.8 31 5.6 42.1
21:20 1026 30.3 855 25.25 23.6 74.5 30 5.3 41.5
21:25 1026 30.3 855 25.25 23.7 74.6 30 5.2 41.4
21:30 1026 30.3 855 25.25 23.7 74.6 30 5.1 41.1
21:35 1026 30.3 855 25.25 23.6 74.4 30 5.1 41.2
21:40 1026 30.3 855 25.25 23.4 74.2 30 5.1 41.3
21:45 1026 30.3 855 25.25 23.2 73.8 31 5.3 41.5
21:50 1026 30.3 855 25.25 23.1 73.6 31 5.3 41.5
21:55 1026 30.3 855 25.25 22.9 73.3 32 5.4 41.7
22:00 1026 30.3 855 25.25 22.9 73.1 32 5.3 41.5
22:05 1026 30.3 855 25.25 22.8 73.1 32 5.3 41.5
22:10 1026 30.3 855 25.25 22.7 72.9 32 5.5 41.9
22:15 1026 30.3 855 25.25 22.5 72.6 32 5.4 41.6
22:20 1026 30.3 855 25.25 22.5 72.6 33 5.5 41.9
22:25 1026 30.3 855 25.25 22.5 72.4 32 5.2 41.4
22:30 1026 30.3 855 25.25 22.5 72.5 32 5.3 41.5
22:35 1026 30.3 855 25.25 22.5 72.5 32 5.3 41.6
22:40 1026 30.3 856 25.28 22.5 72.5 32 5.2 41.3
22:45 1026 30.3 856 25.28 22.5 72.4 32 5.1 41.1
22:50 1026 30.3 856 25.28 22.3 72.1 32 5.2 41.3
22:55 1026 30.3 855 25.25 22 71.6 34 5.5 41.9
23:00 1026 30.3 855 25.25 21.7 71.1 34 5.2 41.4
23:05 1026 30.3 855 25.25 21.9 71.4 32 4.9 40.7
23:10 1026 30.3 855 25.25 21.9 71.4 33 5.1 41.2
23:15 1026 30.3 855 25.25 21.9 71.4 33 5.1 41.2
23:20 1026 30.3 855 25.25 21.9 71.5 33 5 41
23:25 1026 30.3 855 25.25 22.1 71.7 32 4.7 40.4
23:30 1026 30.3 856 25.28 22.2 71.9 32 4.8 40.7
23:35 1026 30.3 856 25.28 22.1 71.7 33 5.1 41.1
23:40 1026 30.3 856 25.28 21.7 71.1 33 5.1 41.2
23:45 1026 30.3 855 25.25 21.6 70.9 33 4.9 40.7
23:50 1026 30.3 855 25.25 21.7 71.1 32 4.5 40.1
23:55 1026 30.3 855 25.25 21.8 71.2 33 4.8 40.7
24:00 1026 30.3 855 25.25 21.4 70.4 34 5.2 41.3